Time;durP1;ratioP1;P1;durP2;ratioP2;P2;SDS_P1;SDS_P2;PMS_P1;PMS_P2;Temp;Humidity;BMP_temperature;BMP_pressure;BME280_temperature;BME280_humidity;BME280_pressure;Samples;Min_cycle;Max_cycle;Signal;HPM_P1;HPM_P2
2023/04/30 00:01:04;;;;;;;15.02;9.30;;;11.70;80.50;;;10.99;62.89;101243.13;5028513;28;20049;-83
2023/04/30 00:03:31;;;;;;;14.55;9.18;;;11.70;80.40;;;10.99;62.81;101240.47;5019142;28;20069;-81
2023/04/30 00:05:58;;;;;;;14.77;9.07;;;11.70;80.30;;;10.98;62.76;101238.78;5018012;28;20054;-84
2023/04/30 00:08:25;;;;;;;15.70;9.75;;;11.70;80.20;;;10.95;62.66;101247.22;5019830;28;20052;-82
2023/04/30 00:10:53;;;;;;;15.20;9.43;;;11.70;80.20;;;10.94;62.64;101243.72;5015820;28;20128;-81
2023/04/30 00:13:21;;;;;;;15.20;9.05;;;11.70;80.10;;;10.95;62.56;101247.22;5024901;28;20040;-82
2023/04/30 00:15:49;;;;;;;14.82;9.32;;;11.70;80.20;;;10.95;62.66;101241.88;5012794;28;20518;-84
2023/04/30 00:18:16;;;;;;;16.83;9.45;;;11.70;80.40;;;10.96;62.83;101238.19;5016983;28;20049;-83
2023/04/30 00:20:43;;;;;;;15.07;9.57;;;11.70;80.30;;;10.95;62.82;101239.19;5023526;28;20121;-84
2023/04/30 00:23:10;;;;;;;19.63;9.68;;;11.70;80.20;;;10.93;62.64;101244.75;5003317;28;20472;-82
2023/04/30 00:25:37;;;;;;;16.70;10.10;;;11.70;80.20;;;10.90;62.58;101239.78;5016291;28;20644;-84
2023/04/30 00:28:05;;;;;;;15.88;9.73;;;11.60;80.00;;;10.86;62.41;101251.03;5010933;28;20710;-81
2023/04/30 00:30:34;;;;;;;14.45;9.45;;;11.60;79.80;;;10.84;62.40;101251.25;5013530;28;20051;-82
2023/04/30 00:33:01;;;;;;;16.75;9.20;;;11.60;79.70;;;10.79;62.19;101253.66;5000851;28;20132;-83
2023/04/30 00:35:29;;;;;;;14.77;8.82;;;11.50;79.60;;;10.76;62.26;101260.19;4992054;28;20070;-82
2023/04/30 00:37:56;;;;;;;14.05;9.52;;;11.50;79.70;;;10.73;62.28;101262.41;4996077;28;20597;-81
2023/04/30 00:40:23;;;;;;;17.83;9.50;;;11.50;79.60;;;10.69;62.20;101253.19;5001242;28;20537;-83
2023/04/30 00:42:51;;;;;;;15.75;8.98;;;11.50;79.80;;;10.67;62.39;101264.03;5022184;28;20060;-82
2023/04/30 00:45:20;;;;;;;16.45;9.25;;;11.40;79.70;;;10.62;62.21;101257.63;4999754;28;20050;-84
2023/04/30 00:47:49;;;;;;;13.93;9.38;;;11.40;79.60;;;10.55;62.30;101255.72;5017056;28;20052;-82
2023/04/30 00:50:17;;;;;;;14.13;9.38;;;11.30;79.60;;;10.52;62.34;101255.28;5019343;28;20505;-83
2023/04/30 00:52:44;;;;;;;16.85;9.15;;;11.30;79.80;;;10.49;62.40;101259.16;5001429;28;20042;-81
2023/04/30 00:55:12;;;;;;;13.95;8.88;;;11.30;79.90;;;10.45;62.23;101265.06;5009911;28;20418;-81
2023/04/30 00:57:40;;;;;;;15.20;8.68;;;11.20;79.70;;;10.40;62.30;101260.31;4997682;28;20050;-82
2023/04/30 01:00:10;;;;;;;15.18;9.60;;;11.20;79.70;;;10.40;62.02;101260.31;5007117;28;20092;-83
2023/04/30 01:02:38;;;;;;;14.73;9.90;;;11.20;79.80;;;10.33;62.20;101264.72;4998040;28;20042;-81
2023/04/30 01:05:07;;;;;;;16.25;10.25;;;11.10;79.60;;;10.30;62.17;101265.13;4998042;28;20459;-83
2023/04/30 01:07:37;;;;;;;14.85;9.63;;;11.10;79.70;;;10.27;62.11;101260.16;4999090;28;20044;-83
2023/04/30 01:10:05;;;;;;;14.55;9.65;;;11.00;79.60;;;10.24;62.12;101253.34;5000265;28;20058;-82
2023/04/30 01:12:44;;;;;;;15.38;9.82;;;11.00;79.80;;;10.24;62.31;101253.34;5004950;28;20081;-83
2023/04/30 01:15:24;;;;;;;15.70;9.35;;;11.00;79.80;;;10.21;62.40;101251.06;4998553;28;20042;-83
2023/04/30 01:17:59;;;;;;;17.55;9.80;;;11.00;79.90;;;10.19;62.43;101252.25;4997326;28;20136;-83
2023/04/30 01:20:30;;;;;;;14.45;9.57;;;10.90;80.00;;;10.17;62.53;101244.44;5008372;28;20073;-84
2023/04/30 01:23:11;;;;;;;14.50;9.85;;;10.90;80.20;;;10.12;62.82;101251.38;4991423;28;20121;-83
2023/04/30 01:26:07;;;;;;;15.30;10.17;;;11.10;80.40;;;10.09;62.46;101257.88;5003567;28;20076;-82
2023/04/30 01:28:38;;;;;;;15.48;9.98;;;10.80;80.10;;;10.06;62.34;101250.28;4984792;28;20062;-83
2023/04/30 01:31:13;;;;;;;12.93;9.13;;;10.80;80.00;;;10.01;62.27;101244.69;5013139;28;20053;-82
2023/04/30 01:33:40;;;;;;;15.23;9.43;;;10.70;80.00;;;9.97;62.42;101244.22;4996225;28;20095;-81
2023/04/30 01:36:49;;;;;;;15.70;9.80;;;10.80;79.90;;;9.93;62.29;101247.47;4995054;28;20054;-81
2023/04/30 01:39:50;;;;;;;15.95;9.48;;;10.70;80.00;;;9.89;62.25;101239.00;4991930;28;20502;-82
2023/04/30 01:42:22;;;;;;;17.50;9.73;;;10.60;79.80;;;9.87;62.08;101242.88;4997908;28;20137;-83
2023/04/30 01:45:07;;;;;;;16.80;9.40;;;10.60;79.80;;;9.80;62.26;101238.28;4990867;28;20078;-82
2023/04/30 01:47:41;;;;;;;14.57;9.43;;;10.50;79.80;;;9.77;62.27;101244.00;4997554;28;20042;-83
2023/04/30 01:50:24;;;;;;;18.42;9.63;;;10.50;79.90;;;9.74;62.39;101239.03;5009877;28;20054;-83
2023/04/30 01:52:55;;;;;;;15.02;9.05;;;10.50;80.00;;;9.71;62.25;101242.09;5001229;28;20418;-82
2023/04/30 01:55:37;;;;;;;14.77;9.95;;;10.40;80.00;;;9.69;62.20;101243.28;5012505;28;20060;-81
2023/04/30 01:58:09;;;;;;;14.75;9.32;;;10.50;80.00;;;9.65;62.43;101249.97;4999010;28;20080;-83
2023/04/30 02:00:37;;;;;;;15.88;9.73;;;10.40;80.00;;;9.64;62.29;101256.31;4993263;28;20585;-82
2023/04/30 02:03:05;;;;;;;14.93;9.30;;;10.40;80.10;;;9.61;62.19;101249.53;5022517;28;20046;-82
2023/04/30 02:05:32;;;;;;;17.45;8.75;;;10.30;80.00;;;9.58;62.15;101255.25;5027318;28;20088;-82
2023/04/30 02:08:00;;;;;;;16.35;9.70;;;10.30;80.00;;;9.56;62.23;101243.94;5016774;28;20057;-83
2023/04/30 02:10:29;;;;;;;16.05;10.07;;;10.30;80.10;;;9.53;62.29;101242.47;5015176;28;20084;-84
2023/04/30 02:12:56;;;;;;;17.65;9.38;;;10.30;80.20;;;9.50;62.32;101252.66;5007604;28;21789;-84
2023/04/30 02:15:24;;;;;;;15.68;9.80;;;10.30;80.20;;;9.47;62.27;101253.06;5024039;28;20128;-84
2023/04/30 02:17:52;;;;;;;14.48;9.60;;;10.20;80.00;;;9.44;62.22;101243.59;5010455;28;20045;-84
2023/04/30 02:20:20;;;;;;;19.00;9.82;;;10.20;80.10;;;9.41;62.41;101240.44;5000699;28;20073;-84
2023/04/30 02:22:47;;;;;;;17.17;9.88;;;10.10;80.20;;;9.39;62.44;101248.63;5024154;28;20228;-82
2023/04/30 02:25:14;;;;;;;13.48;9.43;;;10.10;80.20;;;9.38;62.40;101262.13;5006486;28;20129;-84
2023/04/30 02:27:41;;;;;;;15.70;10.18;;;10.10;80.10;;;9.34;62.13;101252.88;5019899;28;20125;-83
2023/04/30 02:30:10;;;;;;;16.67;9.57;;;10.10;80.10;;;9.32;62.13;101255.72;5016932;28;20064;-82
2023/04/30 02:32:37;;;;;;;14.75;9.93;;;10.00;80.00;;;9.29;62.26;101254.22;4998965;28;20037;-83
2023/04/30 02:35:07;;;;;;;15.85;9.43;;;10.00;80.20;;;9.28;62.39;101254.44;5025590;28;20124;-83
2023/04/30 02:37:34;;;;;;;15.73;9.45;;;10.00;80.30;;;9.27;62.55;101255.41;5017712;28;20145;-83
2023/04/30 02:40:01;;;;;;;18.00;10.85;;;10.00;80.30;;;9.23;62.42;101252.31;5011548;28;20050;-82
2023/04/30 02:42:29;;;;;;;16.27;10.48;;;9.90;80.30;;;9.21;62.32;101254.31;5008428;28;20033;-82
2023/04/30 02:44:56;;;;;;;16.85;10.32;;;9.90;80.30;;;9.20;62.37;101254.50;5026693;28;20395;-83
2023/04/30 02:47:23;;;;;;;17.33;10.75;;;9.90;80.40;;;9.16;62.41;101255.88;5003727;28;20402;-82
2023/04/30 02:49:51;;;;;;;16.27;10.68;;;9.90;80.40;;;9.14;62.36;101256.06;5000272;28;20049;-83
2023/04/30 02:52:19;;;;;;;14.30;9.63;;;9.90;80.40;;;9.11;62.45;101256.41;5001275;28;20144;-82
2023/04/30 02:54:46;;;;;;;17.38;10.98;;;9.80;80.40;;;9.12;62.61;101251.91;4997685;28;20069;-82
2023/04/30 02:57:14;;;;;;;18.90;10.73;;;9.80;80.40;;;9.10;62.42;101254.78;5004831;28;20046;-82
2023/04/30 02:59:44;;;;;;;14.43;10.00;;;9.80;80.50;;;9.07;62.52;101252.47;5000222;28;20085;-81
2023/04/30 03:02:12;;;;;;;16.85;10.13;;;9.80;80.60;;;9.06;62.53;101253.47;4994394;28;20045;-83
2023/04/30 03:04:39;;;;;;;15.98;10.13;;;9.80;80.50;;;9.03;62.57;101252.03;4986971;28;20050;-82
2023/04/30 03:07:06;;;;;;;13.82;9.95;;;9.70;80.50;;;9.03;62.77;101251.19;4997064;28;20128;-82
2023/04/30 03:09:36;;;;;;;16.40;10.25;;;9.70;80.80;;;9.02;62.62;101246.88;5015252;28;20090;-82
2023/04/30 03:12:04;;;;;;;17.30;11.82;;;9.70;80.80;;;9.02;62.89;101238.88;4995272;28;20510;-81
2023/04/30 03:14:31;;;;;;;23.75;10.63;;;9.70;80.80;;;9.01;63.00;101247.88;5008186;28;20078;-82
2023/04/30 03:16:59;;;;;;;16.83;10.45;;;9.70;81.00;;;8.99;62.62;101240.09;4997124;28;20042;-82
2023/04/30 03:19:26;;;;;;;18.85;11.48;;;9.70;81.00;;;8.97;63.03;101244.75;5012867;28;20141;-82
2023/04/30 03:21:54;;;;;;;15.48;10.00;;;9.70;81.10;;;8.97;62.96;101243.91;5009306;28;20069;-83
2023/04/30 03:24:21;;;;;;;17.58;9.55;;;9.70;81.10;;;8.95;62.95;101238.78;5004866;28;20049;-82
2023/04/30 03:26:50;;;;;;;17.00;11.18;;;9.70;81.00;;;8.94;62.92;101239.81;4995566;28;20150;-83
2023/04/30 03:29:18;;;;;;;16.50;9.70;;;9.70;81.10;;;8.92;62.85;101244.47;5015037;28;20050;-82
2023/04/30 03:31:45;;;;;;;16.10;10.65;;;9.60;80.80;;;8.91;62.98;101242.81;4993154;28;20045;-82
2023/04/30 03:34:13;;;;;;;15.25;10.05;;;9.60;81.00;;;8.90;62.90;101249.16;5008194;28;20410;-84
2023/04/30 03:36:40;;;;;;;18.80;10.77;;;9.60;80.90;;;8.89;63.04;101250.16;4996842;28;20153;-82
2023/04/30 03:39:08;;;;;;;16.50;11.13;;;9.60;81.00;;;8.88;62.86;101248.50;5004829;28;20508;-84
2023/04/30 03:41:36;;;;;;;14.43;10.25;;;9.60;80.90;;;8.85;62.81;101243.53;4994148;28;20651;-81
2023/04/30 03:44:04;;;;;;;15.43;10.38;;;9.60;80.80;;;8.83;62.67;101239.41;5017906;28;20413;-83
2023/04/30 03:46:32;;;;;;;17.08;10.80;;;9.50;80.80;;;8.80;62.66;101239.78;5000688;28;20038;-82
2023/04/30 03:48:59;;;;;;;16.00;10.35;;;9.50;80.80;;;8.79;62.71;101249.59;4993778;28;20038;-84
2023/04/30 03:51:27;;;;;;;24.90;11.15;;;9.50;80.70;;;8.76;62.80;101239.31;5002994;28;20052;-82
2023/04/30 03:53:54;;;;;;;14.30;9.90;;;9.50;80.80;;;8.75;62.77;101250.97;5010530;28;20502;-82
2023/04/30 03:56:22;;;;;;;18.52;10.73;;;9.50;80.80;;;8.72;62.81;101241.50;4984515;28;1112778;-81
2023/04/30 03:58:49;;;;;;;17.38;11.57;;;9.50;81.00;;;8.73;62.77;101255.63;5001352;28;20061;-83
2023/04/30 04:01:18;;;;;;;17.00;10.68;;;9.40;80.80;;;8.69;62.74;101249.03;5009129;28;20133;-84
2023/04/30 04:03:45;;;;;;;16.45;11.18;;;9.40;80.80;;;8.67;62.74;101253.69;4996146;28;20498;-83
2023/04/30 04:06:12;;;;;;;17.05;10.68;;;9.40;80.80;;;8.66;62.64;101258.16;5003842;28;20045;-82
2023/04/30 04:08:42;;;;;;;15.90;10.40;;;9.40;80.80;;;8.64;62.76;101260.19;4999815;28;20136;-82
2023/04/30 04:11:09;;;;;;;23.52;11.85;;;9.40;80.80;;;8.62;62.70;101258.72;4991968;28;20147;-84
2023/04/30 04:13:36;;;;;;;17.48;10.32;;;9.30;80.80;;;8.60;62.76;101260.72;5017220;28;20069;-83
2023/04/30 04:16:04;;;;;;;17.67;10.77;;;9.30;80.80;;;8.59;62.87;101261.72;5022373;28;20144;-83
2023/04/30 04:18:33;;;;;;;19.10;12.45;;;9.30;80.90;;;8.59;62.87;101257.25;5001075;28;20048;-82
2023/04/30 04:21:00;;;;;;;17.65;12.15;;;9.40;81.00;;;8.59;63.19;101259.91;5011312;28;20077;-81
2023/04/30 04:23:29;;;;;;;19.48;12.18;;;9.30;81.40;;;8.59;63.26;101259.91;5000703;28;20391;-81
2023/04/30 04:25:57;;;;;;;20.35;12.13;;;9.30;81.60;;;8.59;63.67;101259.91;5011552;28;20073;-83
2023/04/30 04:28:25;;;;;;;17.98;12.38;;;9.30;81.80;;;8.61;63.43;101257.06;4996512;28;20048;-81
2023/04/30 04:30:53;;;;;;;19.13;13.10;;;9.30;81.80;;;8.62;63.91;101262.19;4993726;28;20477;-83
2023/04/30 04:33:20;;;;;;;21.00;13.10;;;9.30;82.00;;;8.64;64.00;101264.69;5002676;28;20065;-83
2023/04/30 04:35:49;;;;;;;19.70;12.68;;;9.30;82.20;;;8.65;64.01;101258.38;5005582;28;20057;-83
2023/04/30 04:38:16;;;;;;;19.27;13.18;;;9.30;82.30;;;8.67;64.04;101269.63;5010934;28;20152;-82
2023/04/30 04:40:53;;;;;;;22.30;13.95;;;9.30;82.40;;;8.68;64.27;101264.13;5004933;28;20073;-82
2023/04/30 04:43:20;;;;;;;22.75;13.90;;;9.40;82.50;;;8.71;64.50;101271.75;5008604;28;20101;-83
2023/04/30 04:45:48;;;;;;;21.77;14.38;;;9.50;82.90;;;8.75;64.82;101272.22;4998145;28;20041;-83
2023/04/30 04:48:15;;;;;;;20.13;12.88;;;9.60;82.90;;;8.88;64.65;101271.59;5023316;28;20049;-84
2023/04/30 04:50:43;;;;;;;18.30;11.98;;;9.60;82.80;;;8.99;64.76;101272.00;5000919;28;20042;-82
2023/04/30 04:53:12;;;;;;;19.35;12.85;;;9.70;82.80;;;9.15;64.81;101268.34;5019639;28;20053;-84
2023/04/30 04:55:39;;;;;;;21.45;12.18;;;9.80;82.70;;;9.31;64.91;101275.34;5008569;28;20053;-82
2023/04/30 04:58:07;;;;;;;16.38;10.98;;;10.00;82.40;;;9.46;64.64;101270.84;5001528;23;20669;-76
2023/04/30 05:00:34;;;;;;;22.13;12.73;;;10.10;82.30;;;9.61;64.50;101281.47;4984919;28;20132;-76
2023/04/30 05:03:01;;;;;;;17.60;11.75;;;10.30;82.50;;;9.76;64.27;101287.66;4995061;28;20050;-78
2023/04/30 05:05:29;;;;;;;30.73;13.02;;;10.40;82.50;;;9.87;63.91;101274.84;4998712;28;20046;-77
2023/04/30 05:07:56;;;;;;;21.45;11.55;;;10.50;81.90;;;9.97;63.67;101278.88;4996982;28;20046;-77
2023/04/30 05:10:25;;;;;;;16.50;11.20;;;10.70;81.70;;;10.03;63.31;101282.63;4988495;28;20117;-77
2023/04/30 05:12:52;;;;;;;19.98;11.85;;;10.70;81.00;;;10.13;63.53;101283.16;4993540;28;20430;-77
2023/04/30 05:15:19;;;;;;;17.52;11.88;;;10.90;81.60;;;10.22;63.23;101284.69;4988131;28;20095;-79
2023/04/30 05:17:46;;;;;;;17.00;12.10;;;10.90;81.20;;;10.28;63.23;101289.28;4993107;28;20494;-77
2023/04/30 05:20:14;;;;;;;17.45;11.98;;;11.00;81.20;;;10.37;63.59;101275.84;4986429;28;20070;-78
2023/04/30 05:22:41;;;;;;;19.45;12.60;;;11.10;81.60;;;10.46;63.43;101280.03;4988155;28;20144;-78
2023/04/30 05:25:09;;;;;;;19.05;12.27;;;11.10;81.30;;;10.55;63.18;101278.91;4990694;28;20066;-76
2023/04/30 05:27:38;;;;;;;17.73;12.07;;;11.20;81.10;;;10.63;63.11;101281.41;4996910;28;20112;-76
2023/04/30 05:30:08;;;;;;;19.80;12.88;;;11.30;81.20;;;10.70;62.70;101281.50;4993595;28;20049;-77
2023/04/30 05:32:35;;;;;;;19.80;12.40;;;11.40;80.60;;;10.74;62.59;101288.94;4984989;28;20088;-77
2023/04/30 05:35:02;;;;;;;18.20;12.52;;;11.40;80.60;;;10.78;62.63;101287.53;4992578;28;20629;-77
2023/04/30 05:37:30;;;;;;;16.13;12.32;;;11.50;80.60;;;10.84;62.70;101296.59;4986260;28;20038;-78
2023/04/30 05:39:57;;;;;;;17.90;12.15;;;11.50;80.60;;;10.88;62.67;101289.00;4987502;28;20125;-79
2023/04/30 05:42:24;;;;;;;17.33;11.68;;;11.60;80.70;;;10.94;62.49;101290.94;4985210;28;20118;-77
2023/04/30 05:44:53;;;;;;;19.05;11.52;;;11.60;80.60;;;11.01;62.54;101299.81;4987873;28;20121;-77
2023/04/30 05:47:20;;;;;;;19.15;11.73;;;11.70;80.60;;;11.04;62.36;101294.91;4985752;28;20176;-77
2023/04/30 05:49:47;;;;;;;17.60;11.82;;;11.70;80.30;;;11.10;62.31;101306.66;4987484;28;20197;-78
2023/04/30 05:52:16;;;;;;;18.23;11.90;;;11.80;80.20;;;11.15;62.43;101300.75;4995106;28;20060;-78
2023/04/30 05:54:43;;;;;;;18.63;12.68;;;11.80;80.20;;;11.18;62.36;101295.84;4988140;28;20038;-78
2023/04/30 05:57:10;;;;;;;18.42;11.57;;;11.80;80.20;;;11.22;62.16;101298.94;4997720;28;20041;-78
2023/04/30 05:59:38;;;;;;;25.80;12.40;;;11.90;80.20;;;11.23;62.23;101303.28;5011055;28;20586;-79
2023/04/30 06:02:07;;;;;;;18.63;12.65;;;11.90;80.20;;;11.29;62.85;101297.16;5015833;28;20040;-77
2023/04/30 06:04:34;;;;;;;19.90;13.48;;;12.00;80.80;;;11.35;62.36;101307.84;4986871;28;20466;-78
2023/04/30 06:07:01;;;;;;;18.65;13.38;;;12.00;80.30;;;11.40;62.61;101303.78;5010930;28;20089;-78
2023/04/30 06:09:28;;;;;;;19.30;13.50;;;12.00;80.40;;;11.48;62.43;101306.31;5004042;28;20136;-76
2023/04/30 06:11:55;;;;;;;18.25;12.82;;;12.20;80.40;;;11.51;62.10;101301.38;5003040;28;20096;-78
2023/04/30 06:14:24;;;;;;;21.73;12.77;;;12.20;79.90;;;11.51;62.08;101296.03;5006356;28;20054;-78
2023/04/30 06:16:52;;;;;;;18.27;12.57;;;12.20;79.80;;;11.55;61.96;101301.81;5006453;28;20042;-78
2023/04/30 06:19:21;;;;;;;18.23;13.10;;;12.30;79.90;;;11.61;62.51;101295.66;4982869;28;20100;-77
2023/04/30 06:21:48;;;;;;;18.75;13.07;;;12.30;80.40;;;11.71;62.29;101289.97;5013509;28;20042;-77
2023/04/30 06:24:15;;;;;;;20.08;13.65;;;12.40;80.00;;;11.81;62.36;101290.44;5001698;28;20487;-77
2023/04/30 06:26:42;;;;;;;21.75;13.95;;;12.50;80.00;;;11.92;61.91;101297.09;5017691;28;20077;-77
2023/04/30 06:29:10;;;;;;;18.02;13.43;;;12.60;79.40;;;11.96;61.68;101298.34;5003451;28;20074;-76
2023/04/30 06:31:37;;;;;;;19.48;13.85;;;12.70;79.40;;;12.08;62.05;101291.41;5003379;28;20145;-77
2023/04/30 06:34:04;;;;;;;21.05;13.57;;;12.80;79.80;;;12.18;61.46;101294.50;5010243;28;20483;-77
2023/04/30 06:36:33;;;;;;;18.92;12.55;;;12.90;78.90;;;12.25;60.74;101292.69;5010073;28;20046;-77
2023/04/30 06:39:00;;;;;;;19.48;12.40;;;12.90;78.20;;;12.35;60.72;101290.44;5005861;28;20099;-77
2023/04/30 06:41:28;;;;;;;16.45;12.07;;;13.00;78.20;;;12.47;60.84;101292.53;4991962;28;20065;-77
2023/04/30 06:43:55;;;;;;;18.85;12.15;;;13.20;78.50;;;12.56;60.15;101291.31;4998469;28;20121;-77
2023/04/30 06:46:22;;;;;;;18.30;11.50;;;13.30;77.80;;;12.62;60.47;101290.47;5016382;28;20317;-78
2023/04/30 06:48:49;;;;;;;17.25;11.27;;;13.40;77.90;;;12.73;60.47;101294.41;5010101;28;20124;-77
2023/04/30 06:51:16;;;;;;;17.02;11.55;;;13.50;77.90;;;12.85;60.65;101293.59;5020027;28;20060;-78
2023/04/30 06:53:45;;;;;;;18.77;11.27;;;13.60;78.10;;;12.97;60.31;101290.28;5009532;28;20077;-77
2023/04/30 06:56:12;;;;;;;19.83;11.93;;;13.70;77.90;;;13.07;59.60;101283.47;4990129;28;20450;-77
2023/04/30 06:58:39;;;;;;;20.10;11.35;;;13.80;77.00;;;13.17;59.48;101293.75;5009443;28;20042;-76
2023/04/30 07:01:06;;;;;;;14.23;10.93;;;13.90;76.70;;;13.25;58.67;101292.75;4996604;28;20046;-78
2023/04/30 07:03:35;;;;;;;15.70;10.82;;;13.90;75.80;;;13.33;58.22;101281.84;5009704;28;20076;-77
2023/04/30 07:06:02;;;;;;;14.57;10.10;;;14.10;75.50;;;13.42;58.40;101280.59;5016958;28;20113;-77
2023/04/30 07:08:29;;;;;;;15.07;11.07;;;14.20;75.40;;;13.52;58.43;101283.66;5010138;28;20038;-77
2023/04/30 07:10:58;;;;;;;14.52;10.70;;;14.30;75.40;;;13.61;57.88;101276.19;5017414;28;20124;-79
2023/04/30 07:13:25;;;;;;;15.75;11.23;;;14.40;74.60;;;13.69;57.65;101284.00;5018986;28;20123;-76
2023/04/30 07:15:53;;;;;;;19.88;10.90;;;14.50;74.60;;;13.77;57.18;101275.72;5006814;28;20053;-79
2023/04/30 07:18:20;;;;;;;15.70;10.98;;;14.60;74.10;;;13.82;56.95;101289.31;5009670;28;20037;-76
2023/04/30 07:20:48;;;;;;;15.38;10.48;;;14.60;73.80;;;13.88;56.65;101285.78;5013104;28;20679;-77
2023/04/30 07:23:15;;;;;;;17.02;10.35;;;14.70;73.50;;;13.93;56.33;101279.78;5015517;28;20038;-78
2023/04/30 07:25:42;;;;;;;16.20;10.43;;;14.70;73.10;;;13.98;56.45;101276.47;5012426;28;20045;-78
2023/04/30 07:28:11;;;;;;;14.38;10.73;;;14.80;72.80;;;13.97;56.22;101283.69;5005617;28;20060;-78
2023/04/30 07:30:38;;;;;;;14.32;10.07;;;14.80;72.70;;;14.05;56.34;101277.22;5013734;28;20052;-77
2023/04/30 07:33:07;;;;;;;14.73;10.48;;;14.80;72.80;;;14.14;56.38;101275.94;5009635;28;20120;-78
2023/04/30 07:35:34;;;;;;;14.45;9.77;;;14.90;72.80;;;14.19;55.64;101278.81;5002463;28;20065;-78
2023/04/30 07:38:01;;;;;;;15.57;10.27;;;15.00;72.10;;;14.26;55.67;101284.97;5003350;28;20138;-77
2023/04/30 07:40:29;;;;;;;14.95;10.10;;;15.10;72.20;;;14.27;54.59;101269.69;5006922;28;20053;-77
2023/04/30 07:42:56;;;;;;;18.30;10.65;;;15.10;71.10;;;14.29;55.40;101273.78;5007017;28;20048;-77
2023/04/30 07:45:25;;;;;;;15.80;10.15;;;15.10;71.70;;;14.35;55.08;101281.00;5001643;28;20045;-77
2023/04/30 07:47:52;;;;;;;15.75;10.10;;;15.20;71.30;;;14.43;55.59;101275.34;5007883;28;20050;-78
2023/04/30 07:50:19;;;;;;;15.25;10.30;;;15.20;71.60;;;14.54;56.50;101273.91;5016741;28;20120;-77
2023/04/30 07:52:48;;;;;;;14.13;10.18;;;15.30;72.70;;;14.65;56.57;101283.94;5002349;28;20049;-77
2023/04/30 07:55:16;;;;;;;14.45;10.45;;;15.50;73.00;;;14.75;55.33;101280.75;5009329;28;20048;-77
2023/04/30 07:57:43;;;;;;;16.15;10.40;;;15.60;71.50;;;14.81;55.56;101281.75;5005705;28;20144;-77
2023/04/30 08:00:12;;;;;;;16.70;10.98;;;15.60;71.60;;;14.87;54.58;101276.28;5000893;28;20054;-76
2023/04/30 08:02:44;;;;;;;15.85;10.10;;;15.70;70.80;;;14.88;53.65;101283.34;5016200;28;20124;-78
2023/04/30 08:05:11;;;;;;;18.05;9.70;;;15.70;69.70;;;14.86;53.60;101284.59;5019526;28;20048;-77
2023/04/30 08:07:40;;;;;;;14.63;9.85;;;15.70;69.50;;;14.88;54.00;101282.50;5005265;28;20727;-77
2023/04/30 08:10:08;;;;;;;14.50;10.05;;;15.70;69.90;;;14.92;53.74;101279.16;5009432;28;20462;-78
2023/04/30 08:12:36;;;;;;;15.82;9.45;;;15.70;70.00;;;14.94;53.43;101285.13;5004209;28;20038;-78
2023/04/30 08:15:06;;;;;;;15.13;9.80;;;15.70;69.30;;;14.98;53.75;101282.81;5005291;28;20057;-78
2023/04/30 08:17:33;;;;;;;14.00;9.02;;;15.80;69.70;;;15.02;53.92;101289.38;5001389;28;20045;-78
2023/04/30 08:20:04;;;;;;;12.85;9.02;;;15.80;69.70;;;14.99;52.91;101284.47;5006815;28;20053;-78
2023/04/30 08:22:31;;;;;;;13.87;9.53;;;15.80;68.50;;;14.99;53.28;101287.16;5008178;28;20037;-78
2023/04/30 08:25:00;;;;;;;15.73;9.40;;;15.80;69.10;;;15.01;53.74;101281.56;5015291;28;20129;-77
2023/04/30 08:27:28;;;;;;;14.82;9.25;;;15.80;69.40;;;15.06;53.67;101281.72;5009252;28;20050;-77
2023/04/30 08:29:55;;;;;;;13.43;9.18;;;15.90;69.50;;;15.08;53.57;101276.94;5020604;28;20513;-78
2023/04/30 08:32:22;;;;;;;11.52;8.43;;;15.90;69.50;;;15.05;52.38;101277.41;5018527;28;20050;-79
2023/04/30 08:34:50;;;;;;;12.88;8.10;;;15.90;68.10;;;14.90;51.97;101285.78;4997300;28;20042;-78
2023/04/30 08:37:19;;;;;;;13.10;8.45;;;15.70;67.40;;;14.64;51.59;101281.44;5004828;28;20121;-79
2023/04/30 08:39:46;;;;;;;13.65;9.38;;;15.60;67.00;;;14.62;53.27;101281.66;5003371;28;20046;-78
2023/04/30 08:42:15;;;;;;;12.70;8.27;;;15.50;68.80;;;14.62;53.14;101287.03;5006990;28;20046;-78
2023/04/30 08:44:44;;;;;;;12.75;8.82;;;15.50;68.80;;;14.66;53.77;101287.44;5001332;28;20053;-78
2023/04/30 08:47:13;;;;;;;13.50;8.50;;;15.50;69.70;;;14.70;53.32;101288.63;5009514;28;20058;-78
2023/04/30 08:49:41;;;;;;;12.52;8.43;;;15.50;69.30;;;14.70;54.63;101280.59;5008553;28;20037;-78
2023/04/30 08:52:08;;;;;;;12.45;8.25;;;15.50;70.70;;;14.79;54.29;101279.28;4985906;28;20042;-79
2023/04/30 08:54:37;;;;;;;12.27;7.97;;;15.60;70.20;;;14.82;53.47;101278.81;5009857;28;20045;-79
2023/04/30 08:57:05;;;;;;;14.20;8.38;;;15.60;69.40;;;14.85;54.47;101283.75;5004806;28;20565;-78
2023/04/30 08:59:32;;;;;;;12.32;8.68;;;15.60;70.50;;;14.89;54.10;101282.28;5003775;28;20131;-78
2023/04/30 09:02:01;;;;;;;11.77;7.88;;;15.70;69.70;;;14.93;54.37;101277.28;5012164;28;20116;-79
2023/04/30 09:04:29;;;;;;;11.80;7.38;;;15.70;70.30;;;14.98;53.27;101282.00;5009306;28;20042;-79
2023/04/30 09:06:58;;;;;;;10.25;6.38;;;15.70;69.00;;;14.96;52.01;101273.34;5009323;28;20045;-79
2023/04/30 09:09:29;;;;;;;9.00;6.18;;;15.70;67.40;;;14.97;53.30;101275.81;5004206;28;20450;-80
2023/04/30 09:15:04;;;;;;;10.20;6.88;;;15.70;68.90;;;15.07;53.17;101272.63;5122172;27;20468;-79
2023/04/30 09:17:33;;;;;;;10.52;6.95;;;15.90;68.80;;;15.07;52.30;101269.94;5105269;28;20055;-78
2023/04/30 09:20:08;;;;;;;10.90;6.28;;;15.90;67.70;;;15.09;52.92;101263.31;5110826;28;20122;-77
2023/04/30 09:22:37;;;;;;;9.57;6.28;;;15.90;68.50;;;15.06;51.88;101268.28;5111759;27;20036;-78
2023/04/30 09:25:05;;;;;;;8.85;5.88;;;15.90;67.40;;;15.05;52.29;101264.78;5105339;28;20055;-78
2023/04/30 09:27:33;;;;;;;9.90;6.57;;;15.90;67.90;;;15.03;51.61;101263.34;5110126;27;20126;-78
2023/04/30 09:30:01;;;;;;;12.60;6.97;;;15.80;67.00;;;15.00;51.99;101255.75;5097003;28;20047;-79
2023/04/30 09:32:29;;;;;;;10.98;7.13;;;15.80;67.20;;;14.96;52.80;101254.53;5111315;27;20488;-78
2023/04/30 09:34:56;;;;;;;10.85;6.90;;;15.80;68.10;;;14.99;54.32;101249.56;5114247;27;20039;-79
2023/04/30 09:37:36;;;;;;;11.70;7.05;;;15.80;69.80;;;15.05;53.28;101245.16;5106237;28;20047;-78
2023/04/30 09:40:03;;;;;;;13.07;7.70;;;15.90;68.70;;;15.05;52.54;101247.84;5106716;27;20058;-80
2023/04/30 09:42:30;;;;;;;11.80;7.25;;;15.90;68.10;;;15.09;52.66;101247.19;5111349;27;20468;-78
2023/04/30 09:44:58;;;;;;;11.55;7.43;;;15.90;67.90;;;15.11;53.37;101250.47;5108790;27;20040;-80
2023/04/30 09:47:31;;;;;;;11.63;6.65;;;15.90;68.90;;;15.16;52.71;101241.72;5105354;28;20056;-79
2023/04/30 09:50:00;;;;;;;10.60;6.50;;;15.90;68.00;;;15.17;52.79;101241.50;5112230;27;20036;-78
2023/04/30 09:52:27;;;;;;;10.68;6.80;;;16.00;68.10;;;15.24;52.75;101238.75;5103229;27;20138;-78
2023/04/30 09:54:54;;;;;;;11.35;7.05;;;16.00;68.10;;;15.23;52.42;101239.81;5117674;27;20796;-79
2023/04/30 09:57:24;;;;;;;13.25;6.65;;;16.00;67.70;;;15.26;51.55;101227.78;5106010;27;20510;-78
2023/04/30 09:59:53;;;;;;;10.48;6.63;;;16.00;66.60;;;15.20;52.21;101222.25;5105000;27;20055;-80
2023/04/30 10:02:22;;;;;;;9.43;6.22;;;16.00;67.50;;;15.24;52.62;101229.88;5097901;28;20040;-78
2023/04/30 10:04:57;;;;;;;8.30;5.60;;;16.10;67.90;;;15.23;51.02;101230.94;5105229;28;20040;-79
2023/04/30 10:07:31;;;;;;;9.45;6.03;;;16.00;66.00;;;15.18;50.79;101229.72;5106064;27;20482;-79
2023/04/30 10:10:07;;;;;;;13.20;5.70;;;16.00;65.80;;;15.16;50.83;101223.75;5111190;28;20089;-78
2023/04/30 10:12:43;;;;;;;11.02;5.97;;;16.00;65.60;;;15.18;51.24;101228.91;5102137;28;20048;-78
2023/04/30 10:15:17;;;;;;;8.43;5.60;;;16.00;66.20;;;15.17;51.12;101230.75;5099658;28;20081;-78